createdAt,value
2018-12-06T00:02:16.962Z,101510.94
2018-12-06T00:04:50.612Z,101504.13
2018-12-06T00:07:20.101Z,101491.26
2018-12-06T00:09:49.716Z,101485.10
2018-12-06T00:12:44.752Z,101484.20
2018-12-06T00:15:29.132Z,101474.22
2018-12-06T00:17:59.378Z,101476.59
2018-12-06T00:20:34.532Z,101476.38
2018-12-06T00:23:07.298Z,101477.30
2018-12-06T00:25:55.430Z,101471.14
2018-12-06T00:28:30.756Z,101474.64
2018-12-06T00:34:28.328Z,101467.03
2018-12-06T00:37:20.164Z,101462.45
2018-12-06T00:40:04.696Z,101466.33
2018-12-06T00:42:40.082Z,101458.12
2018-12-06T00:45:28.616Z,101451.16
2018-12-06T00:47:58.346Z,101450.50
2018-12-06T00:50:27.935Z,101444.64
2018-12-06T00:53:05.351Z,101444.18
2018-12-06T00:55:38.803Z,101440.30
2018-12-06T01:01:21.611Z,101426.94
2018-12-06T01:03:50.983Z,101421.73
2018-12-06T01:09:19.195Z,101428.91
2018-12-06T01:17:50.507Z,101429.38
2018-12-06T01:20:25.341Z,101428.53
2018-12-06T01:23:02.087Z,101420.80
2018-12-06T01:31:42.745Z,101424.30
2018-12-06T01:34:23.959Z,101429.50
2018-12-06T01:36:59.240Z,101419.16
2018-12-06T01:39:33.303Z,101423.50
2018-12-06T01:42:03.271Z,101416.50
2018-12-06T01:44:47.043Z,101416.95
2018-12-06T01:47:16.600Z,101417.38
2018-12-06T01:49:54.417Z,101406.73
2018-12-06T01:52:42.537Z,101412.86
2018-12-06T01:55:12.887Z,101413.20
2018-12-06T01:57:48.586Z,101407.73
2018-12-06T02:00:21.906Z,101409.77
2018-12-06T02:03:04.407Z,101405.85
2018-12-06T02:11:34.094Z,101401.92
2018-12-06T02:14:09.010Z,101397.58
2018-12-06T02:16:54.706Z,101389.03
2018-12-06T02:19:39.010Z,101393.08
2018-12-06T02:22:08.901Z,101388.76
2018-12-06T02:24:38.937Z,101388.69
2018-12-06T02:27:08.317Z,101387.03
2018-12-06T02:29:42.898Z,101385.26
2018-12-06T02:32:12.638Z,101383.09
2018-12-06T02:34:41.997Z,101380.91
2018-12-06T02:37:11.676Z,101379.95
2018-12-06T02:39:41.137Z,101380.27
2018-12-06T02:42:10.885Z,101375.91
2018-12-06T02:44:40.491Z,101379.77
2018-12-06T02:47:09.878Z,101375.48
2018-12-06T02:49:39.617Z,101374.02
2018-12-06T02:52:08.965Z,101366.17
2018-12-06T02:54:38.737Z,101363.64
2018-12-06T02:57:08.095Z,101359.64
2018-12-06T02:59:37.826Z,101349.02
2018-12-06T03:02:07.185Z,101341.52
2018-12-06T03:04:36.858Z,101336.64
2018-12-06T03:07:10.194Z,101331.20
2018-12-06T03:09:43.178Z,101329.05
2018-12-06T03:12:18.489Z,101322.16
2018-12-06T03:15:01.683Z,101323.08
2018-12-06T03:17:49.010Z,101316.97
2018-12-06T03:20:27.371Z,101315.69
2018-12-06T03:23:02.545Z,101312.08
2018-12-06T03:25:39.233Z,101317.03
2018-12-06T03:28:11.874Z,101307.84
2018-12-06T03:33:49.540Z,101293.70
2018-12-06T03:36:18.912Z,101294.61
2018-12-06T03:38:48.307Z,101285.49
2018-12-06T03:41:18.104Z,101282.88
2018-12-06T03:43:47.564Z,101282.52
2018-12-06T03:46:17.401Z,101279.45
2018-12-06T03:48:46.822Z,101271.67
2018-12-06T03:51:16.222Z,101268.48
2018-12-06T03:53:45.956Z,101267.67
2018-12-06T03:56:15.662Z,101263.42
2018-12-06T03:58:45.524Z,101261.66
2018-12-06T04:01:15.251Z,101252.96
2018-12-06T04:21:22.917Z,101222.38
2018-12-06T04:39:20.882Z,101185.34
2018-12-06T04:47:16.865Z,101169.76
2018-12-06T05:05:49.575Z,101135.48
2018-12-06T05:11:19.244Z,101139.87
2018-12-06T05:13:48.994Z,101129.86
2018-12-06T05:16:18.382Z,101124.16
2018-12-06T05:18:47.705Z,101128.92
2018-12-06T05:21:17.594Z,101129.41
2018-12-06T05:23:47.446Z,101134.12
2018-12-06T05:26:17.184Z,101138.17
2018-12-06T05:31:52.485Z,101126.76
2018-12-06T05:34:50.343Z,101135.03
2018-12-06T05:37:20.062Z,101120.59
2018-12-06T05:39:49.802Z,101129.71
2018-12-06T05:42:19.334Z,101127.52
2018-12-06T05:44:49.125Z,101131.41
2018-12-06T05:47:18.986Z,101122.28
2018-12-06T05:49:48.840Z,101117.47
2018-12-06T05:52:18.629Z,101118.34
2018-12-06T05:54:48.341Z,101119.31
2018-12-06T05:57:18.148Z,101116.72
2018-12-06T05:59:47.584Z,101121.09
2018-12-06T06:02:17.369Z,101115.91
2018-12-06T06:04:46.800Z,101115.55
2018-12-06T06:07:16.527Z,101114.16
2018-12-06T06:10:23.597Z,101112.88
2018-12-06T06:12:53.062Z,101107.56
2018-12-06T06:15:23.520Z,101108.52
2018-12-06T06:17:53.228Z,101109.75
2018-12-06T06:20:22.653Z,101107.64
2018-12-06T06:22:52.104Z,101110.69
2018-12-06T06:25:21.897Z,101105.03
2018-12-06T06:27:51.313Z,101111.69
2018-12-06T06:30:21.035Z,101111.95
2018-12-06T06:32:50.763Z,101107.61
2018-12-06T06:35:20.464Z,101110.83
2018-12-06T06:37:50.258Z,101114.73
2018-12-06T06:40:25.452Z,101116.52
2018-12-06T06:42:55.225Z,101119.59
2018-12-06T06:45:24.990Z,101115.61
2018-12-06T06:47:55.389Z,101121.75
2018-12-06T06:50:25.269Z,101124.47
2018-12-06T06:52:58.736Z,101127.56
2018-12-06T06:55:28.612Z,101130.12
2018-12-06T06:58:08.405Z,101125.69
2018-12-06T07:00:41.249Z,101128.77
2018-12-06T07:03:11.136Z,101110.78
2018-12-06T07:05:40.996Z,101094.23
2018-12-06T07:08:10.940Z,101090.84
2018-12-06T07:10:40.936Z,101084.83
2018-12-06T07:13:10.869Z,101078.70
2018-12-06T07:15:40.807Z,101076.09
2018-12-06T07:18:15.532Z,101090.48
2018-12-06T07:20:48.040Z,101111.02
2018-12-06T07:23:17.853Z,101112.35
2018-12-06T07:25:51.154Z,101119.86
2018-12-06T07:28:20.881Z,101122.92
2018-12-06T07:30:54.639Z,101116.84
2018-12-06T07:33:24.348Z,101124.30
2018-12-06T07:35:54.105Z,101133.52
2018-12-06T07:38:25.207Z,101133.61
2018-12-06T07:40:54.887Z,101132.42
2018-12-06T07:43:24.546Z,101123.72
2018-12-06T07:45:58.334Z,101119.38
2018-12-06T07:48:29.046Z,101116.70
2018-12-06T07:51:01.929Z,101108.48
2018-12-06T07:53:31.664Z,101103.33
2018-12-06T07:56:01.400Z,101098.52
2018-12-06T07:58:34.568Z,101095.88
2018-12-06T08:01:18.214Z,101095.88
2018-12-06T08:03:48.004Z,101097.66
2018-12-06T08:06:17.717Z,101102.50
2018-12-06T08:08:47.478Z,101102.11
2018-12-06T08:11:17.252Z,101091.67
2018-12-06T08:13:54.598Z,101090.78
2018-12-06T08:16:30.118Z,101089.53
2018-12-06T08:18:59.934Z,101089.16
2018-12-06T08:21:29.685Z,101086.56
2018-12-06T08:23:59.508Z,101086.98
2018-12-06T08:26:29.220Z,101089.19
2018-12-06T08:28:59.103Z,101093.67
2018-12-06T08:34:34.968Z,101092.55
2018-12-06T08:37:09.983Z,101089.99
2018-12-06T08:39:39.804Z,101080.34
2018-12-06T08:42:09.627Z,101072.07
2018-12-06T08:44:39.598Z,101068.64
2018-12-06T08:47:09.392Z,101078.35
2018-12-06T08:50:01.775Z,101077.50
2018-12-06T08:52:31.699Z,101080.64
2018-12-06T08:55:01.776Z,101076.69
2018-12-06T08:57:33.038Z,101054.73
2018-12-06T09:00:02.972Z,101057.79
2018-12-06T09:02:38.051Z,101050.28
2018-12-06T09:05:08.033Z,100989.72
2018-12-06T09:07:38.126Z,101036.70
2018-12-06T09:10:09.193Z,101033.21
2018-12-06T09:12:38.968Z,101032.32
2018-12-06T09:15:14.617Z,101028.36
2018-12-06T09:17:44.605Z,101023.08
2018-12-06T09:20:14.548Z,101024.38
2018-12-06T09:22:44.412Z,101031.02
2018-12-06T09:25:20.868Z,101037.62
2018-12-06T09:27:46.352Z,101042.03
2018-12-06T09:30:16.501Z,101047.67
2018-12-06T09:32:46.535Z,101045.81
2018-12-06T09:35:16.383Z,101055.41
2018-12-06T09:37:47.377Z,101080.81
2018-12-06T09:40:45.761Z,101088.70
2018-12-06T09:43:15.507Z,101091.52
2018-12-06T09:45:45.330Z,101077.56
2018-12-06T09:48:21.339Z,101069.23
2018-12-06T09:50:51.797Z,101074.94
2018-12-06T09:53:27.340Z,101081.11
2018-12-06T09:56:03.059Z,101076.71
2018-12-06T09:58:38.462Z,101073.18
2018-12-06T10:01:15.095Z,101060.36
2018-12-06T10:04:13.535Z,101068.31
2018-12-06T10:06:43.281Z,101067.44
2018-12-06T10:09:21.877Z,101061.67
2018-12-06T10:30:19.894Z,101057.14
2018-12-06T10:32:49.319Z,101055.16
2018-12-06T10:35:18.723Z,101056.47
2018-12-06T10:37:54.814Z,101057.37
2018-12-06T10:49:57.551Z,101034.98
2018-12-06T10:58:34.005Z,101034.00
2018-12-06T11:01:13.199Z,101019.94
2018-12-06T11:03:51.403Z,101020.00
2018-12-06T11:06:26.927Z,101022.17
2018-12-06T11:09:01.955Z,101012.15
2018-12-06T11:11:34.827Z,101015.17
2018-12-06T11:14:08.514Z,101010.77
2018-12-06T11:17:40.479Z,101016.92
2018-12-06T11:20:24.026Z,101013.05
2018-12-06T11:47:40.227Z,100978.86
2018-12-06T11:50:21.287Z,100973.59
2018-12-06T11:53:03.964Z,100967.45
2018-12-06T12:01:31.895Z,100942.44
2018-12-06T12:04:06.801Z,100939.78
2018-12-06T12:06:39.755Z,100935.80
2018-12-06T12:10:50.101Z,100931.39
2018-12-06T12:13:35.963Z,100923.81
2018-12-06T12:19:11.887Z,100921.63
2018-12-06T12:22:01.800Z,100926.41
2018-12-06T12:24:41.614Z,100924.26
2018-12-06T13:48:28.753Z,100940.25
2018-12-06T13:51:03.834Z,100941.59
2018-12-06T13:53:49.919Z,100941.16
2018-12-06T13:56:31.908Z,100938.06
2018-12-06T13:59:09.726Z,100948.16
2018-12-06T14:01:43.285Z,100933.23
2018-12-06T14:04:16.733Z,100942.03
2018-12-06T14:07:05.640Z,100938.95
2018-12-06T14:09:38.871Z,100934.58
2018-12-06T14:12:14.954Z,100933.25
2018-12-06T14:14:50.714Z,100931.96
2018-12-06T14:17:20.481Z,100924.49
2018-12-06T14:19:55.653Z,100918.31
2018-12-06T14:22:31.076Z,100920.52
2018-12-06T14:25:00.798Z,100917.91
2018-12-06T14:27:30.377Z,100916.13
2018-12-06T14:30:00.106Z,100913.49
2018-12-06T14:32:33.138Z,100907.80
2018-12-06T14:35:03.431Z,100910.03
2018-12-06T14:37:39.298Z,100906.09
2018-12-06T14:40:12.662Z,100881.92
2018-12-06T14:42:51.075Z,100866.17
2018-12-06T14:45:27.470Z,100865.72
2018-12-06T14:48:15.685Z,100869.23
2018-12-06T14:50:55.630Z,100863.59
2018-12-06T14:56:50.024Z,100860.54
2018-12-06T14:59:37.982Z,100855.28
2018-12-06T15:02:07.779Z,100855.72
2018-12-06T15:04:37.586Z,100867.99
2018-12-06T15:07:13.132Z,100869.73
2018-12-06T15:12:51.018Z,100871.92
2018-12-06T15:15:20.760Z,100871.92
2018-12-06T15:17:50.522Z,100878.50
2018-12-06T15:20:20.337Z,100893.39
2018-12-06T15:22:49.687Z,100887.69
2018-12-06T15:25:19.442Z,100895.58
2018-12-06T15:27:49.533Z,100900.41
2018-12-06T15:30:19.005Z,100893.84
2018-12-06T15:32:48.427Z,100895.14
2018-12-06T15:35:18.382Z,100905.67
2018-12-06T15:37:48.781Z,100909.19
2018-12-06T15:40:18.733Z,100910.05
2018-12-06T15:42:48.595Z,100918.39
2018-12-06T15:45:18.477Z,100912.70
2018-12-06T15:47:52.526Z,100905.67
2018-12-06T15:50:39.804Z,100901.30
2018-12-06T15:56:22.595Z,100913.57
2018-12-06T15:59:08.012Z,100908.31
2018-12-06T16:01:51.831Z,100893.38
2018-12-06T16:07:28.285Z,100921.45
2018-12-06T16:10:13.506Z,100928.02
2018-12-06T16:12:46.752Z,100930.64
2018-12-06T16:15:45.029Z,100938.52
2018-12-06T16:21:48.336Z,100912.25
2018-12-06T16:24:20.846Z,100907.86
2018-12-06T16:26:56.366Z,100914.87
2018-12-06T16:29:31.416Z,100918.38
2018-12-06T16:32:04.133Z,100918.80
2018-12-06T16:34:37.426Z,100918.80
2018-12-06T16:37:12.894Z,100920.58
2018-12-06T16:46:03.600Z,100917.95
2018-12-06T16:52:00.352Z,100906.12
2018-12-06T16:54:41.911Z,100912.67
2018-12-06T16:57:11.817Z,100912.27
2018-12-06T16:59:41.828Z,100920.58
2018-12-06T17:02:11.643Z,100928.91
2018-12-06T17:04:41.420Z,100933.27
2018-12-06T17:07:11.335Z,100935.02
2018-12-06T17:09:41.046Z,100933.28
2018-12-06T17:12:10.873Z,100934.14
2018-12-06T17:14:40.820Z,100935.46
2018-12-06T17:17:10.789Z,100934.59
2018-12-06T17:19:40.726Z,100933.67
2018-12-06T17:22:11.316Z,100933.25
2018-12-06T17:24:41.118Z,100935.01
2018-12-06T17:27:12.436Z,100935.47
2018-12-06T17:32:43.944Z,100925.82
2018-12-06T17:35:15.870Z,100920.09
2018-12-06T17:37:45.985Z,100919.19
2018-12-06T17:40:16.522Z,100921.39
2018-12-06T17:42:47.141Z,100925.34
2018-12-06T17:45:17.461Z,100925.33
2018-12-06T17:47:47.790Z,100938.47
2018-12-06T17:50:18.340Z,100928.41
2018-12-06T17:52:47.840Z,100922.28
2018-12-06T17:55:17.684Z,100917.02
2018-12-06T17:57:48.219Z,100916.16
2018-12-06T18:00:18.026Z,100915.72
2018-12-06T18:02:47.933Z,100915.73
2018-12-06T18:05:17.784Z,100907.85
2018-12-06T18:07:49.194Z,100903.92
2018-12-06T18:10:19.144Z,100908.30
2018-12-06T18:12:49.008Z,100901.27
2018-12-06T18:15:19.379Z,100908.24
2018-12-06T18:17:49.104Z,100909.58
2018-12-06T18:20:22.708Z,100913.10
2018-12-06T18:22:54.236Z,100925.37
2018-12-06T18:25:31.569Z,100909.56
2018-12-06T18:28:17.047Z,100909.56
2018-12-06T18:30:53.203Z,100901.73
2018-12-06T18:33:27.029Z,100896.48
2018-12-06T18:45:09.610Z,100898.65
2018-12-06T18:53:43.887Z,100897.34
2018-12-06T18:59:19.780Z,100904.36
2018-12-06T19:05:06.927Z,100885.50
2018-12-06T19:10:53.215Z,100874.98
2018-12-06T19:16:46.304Z,100877.64
2018-12-06T19:33:48.475Z,100883.33
2018-12-06T19:39:22.199Z,100856.11
2018-12-06T19:41:52.132Z,100848.67
2018-12-06T19:44:22.291Z,100847.33
2018-12-06T19:50:26.986Z,100851.75
2018-12-06T19:56:17.651Z,100851.28
2018-12-06T19:58:53.867Z,100845.59
2018-12-06T20:01:24.023Z,100847.32
2018-12-06T20:03:54.082Z,100849.51
2018-12-06T20:06:24.142Z,100842.49
2018-12-06T20:08:54.024Z,100842.93
2018-12-06T20:11:24.011Z,100843.79
2018-12-06T20:13:54.011Z,100848.61
2018-12-06T20:16:42.450Z,100843.77
2018-12-06T20:19:17.231Z,100833.23
2018-12-06T20:22:01.003Z,100831.48
2018-12-06T20:24:50.685Z,100842.45
2018-12-06T20:27:33.907Z,100843.30
2018-12-06T20:30:04.345Z,100845.48
2018-12-06T20:32:34.495Z,100839.34
2018-12-06T20:35:04.482Z,100831.38
2018-12-06T20:37:34.479Z,100830.06
2018-12-06T20:40:05.193Z,100830.94
2018-12-06T20:42:35.335Z,100819.53
2018-12-06T20:45:05.577Z,100806.80
2018-12-06T20:47:35.479Z,100820.41
2018-12-06T20:50:06.038Z,100817.78
2018-12-06T20:52:42.203Z,100817.30
2018-12-06T20:55:12.236Z,100807.67
2018-12-06T20:57:42.323Z,100803.69
2018-12-06T21:00:12.905Z,100798.41
2018-12-06T21:02:42.744Z,100791.83
2018-12-06T21:05:14.196Z,100787.01
2018-12-06T21:07:44.888Z,100783.49
2018-12-06T21:10:15.880Z,100781.26
2018-12-06T21:12:46.159Z,100783.40
2018-12-06T21:15:16.239Z,100778.12
2018-12-06T21:17:48.143Z,100781.20
2018-12-06T21:20:18.014Z,100784.71
2018-12-06T21:22:47.955Z,100789.97
2018-12-06T21:25:17.861Z,100782.02
2018-12-06T21:27:47.696Z,100775.44
2018-12-06T21:30:18.351Z,100789.04
2018-12-06T21:32:48.270Z,100792.06
2018-12-06T21:35:24.286Z,100786.36
2018-12-06T21:38:03.918Z,100792.89
2018-12-06T21:40:35.818Z,100783.23
2018-12-06T21:43:06.766Z,100777.52
2018-12-06T21:45:39.657Z,100778.39
2018-12-06T21:48:15.096Z,100776.63
2018-12-06T21:50:56.402Z,100778.81
2018-12-06T21:53:28.945Z,100777.02
2018-12-06T21:56:08.311Z,100776.08
2018-12-06T21:58:49.789Z,100770.83
2018-12-06T22:03:57.742Z,100773.00
2018-12-06T22:06:32.074Z,100776.47
2018-12-06T22:09:07.140Z,100779.10
2018-12-06T22:11:40.146Z,100778.64
2018-12-06T22:14:11.427Z,100777.77
2018-12-06T22:16:44.495Z,100778.59
2018-12-06T22:19:15.599Z,100775.05
2018-12-06T22:21:48.734Z,100769.28
2018-12-06T22:24:18.811Z,100766.17
2018-12-06T22:26:51.996Z,100765.68
2018-12-06T22:29:27.547Z,100767.00
2018-12-06T22:32:00.467Z,100763.46
2018-12-06T22:34:31.538Z,100767.38
2018-12-06T22:37:05.362Z,100765.61
2018-12-06T22:39:38.772Z,100762.97
2018-12-06T22:42:11.898Z,100755.48
2018-12-06T22:44:43.383Z,100751.95
2018-12-06T22:47:18.153Z,100748.80
2018-12-06T22:49:54.476Z,100753.13
2018-12-06T22:52:38.598Z,100752.68
2018-12-06T22:55:11.075Z,100745.70
2018-12-06T23:01:04.943Z,100744.83
2018-12-06T23:03:41.262Z,100744.32
2018-12-06T23:06:21.499Z,100742.98
2018-12-06T23:08:55.937Z,100747.41
2018-12-06T23:11:25.821Z,100745.64
2018-12-06T23:13:55.653Z,100734.17
2018-12-06T23:16:31.678Z,100725.81
2018-12-06T23:19:03.859Z,100723.12
2018-12-06T23:21:33.773Z,100718.70
2018-12-06T23:24:04.689Z,100713.84
2018-12-06T23:26:52.418Z,100711.14
2018-12-06T23:29:27.983Z,100711.56
2018-12-06T23:32:04.782Z,100706.70
2018-12-06T23:44:00.647Z,100685.08
2018-12-06T23:49:40.122Z,100687.69
2018-12-06T23:52:32.088Z,100680.63
